Time;durP1;ratioP1;P1;durP2;ratioP2;P2;SDS_P1;SDS_P2;PMS_P1;PMS_P2;Temp;Humidity;BMP_temperature;BMP_pressure;BME280_temperature;BME280_humidity;BME280_pressure;Samples;Min_cycle;Max_cycle;Signal;HPM_P1;HPM_P2
2022/04/23 00:00:40;;;;;;;12.05;9.60;;;10.70;99.90;;;;;;5074640;28;20045;-87
2022/04/23 00:03:05;;;;;;;17.25;10.68;;;10.70;99.90;;;;;;5075510;28;20052;-86
2022/04/23 00:05:31;;;;;;;16.65;11.35;;;10.70;99.90;;;;;;5075470;28;20044;-87
2022/04/23 00:07:57;;;;;;;14.73;11.00;;;10.70;99.90;;;;;;5056942;28;20052;-86
2022/04/23 00:10:23;;;;;;;14.80;11.00;;;10.50;99.90;;;;;;5057548;28;20044;-87
2022/04/23 00:12:50;;;;;;;16.05;11.38;;;10.60;99.90;;;;;;5075367;28;20056;-87
2022/04/23 00:15:15;;;;;;;17.70;11.80;;;10.60;99.90;;;;;;5074094;28;20048;-86
2022/04/23 00:17:43;;;;;;;13.63;11.10;;;10.60;99.90;;;;;;5073929;28;20056;-86
2022/04/23 00:20:11;;;;;;;15.88;11.88;;;10.50;99.90;;;;;;5057461;28;20049;-86
2022/04/23 00:22:37;;;;;;;15.05;11.60;;;10.50;99.90;;;;;;5075123;28;20075;-86
2022/04/23 00:25:04;;;;;;;15.68;12.60;;;10.60;99.90;;;;;;5074097;28;20040;-87
2022/04/23 00:27:29;;;;;;;14.20;11.50;;;10.50;99.90;;;;;;5040447;28;20436;-86
2022/04/23 00:29:55;;;;;;;17.42;11.73;;;10.50;99.90;;;;;;5075096;28;20040;-86
2022/04/23 00:32:21;;;;;;;16.70;12.88;;;10.40;99.90;;;;;;5074549;28;20056;-86
2022/04/23 00:34:46;;;;;;;17.35;12.07;;;10.40;99.90;;;;;;5075067;28;20048;-87
2022/04/23 00:37:13;;;;;;;17.35;12.95;;;10.40;99.90;;;;;;5073674;28;20059;-87
2022/04/23 00:39:39;;;;;;;21.08;13.13;;;10.30;99.90;;;;;;5073899;28;20128;-87
2022/04/23 00:42:08;;;;;;;16.52;12.50;;;10.40;99.90;;;;;;5056907;28;20454;-86
2022/04/23 00:44:35;;;;;;;21.25;12.98;;;10.30;99.90;;;;;;5073775;28;20054;-87
2022/04/23 00:47:02;;;;;;;17.70;12.85;;;10.20;99.90;;;;;;5074842;28;20437;-86
2022/04/23 00:49:27;;;;;;;19.05;13.45;;;10.30;99.90;;;;;;5056951;28;20404;-86
2022/04/23 00:51:53;;;;;;;14.77;11.90;;;10.20;99.90;;;;;;5074668;28;20128;-86
2022/04/23 00:54:20;;;;;;;18.48;12.88;;;10.20;99.90;;;;;;5074383;28;20095;-87
2022/04/23 00:56:46;;;;;;;17.85;13.30;;;10.30;99.90;;;;;;5056459;28;20064;-87
2022/04/23 00:59:13;;;;;;;17.40;13.20;;;10.20;99.90;;;;;;5073543;28;20052;-86
2022/04/23 01:01:43;;;;;;;17.20;13.60;;;10.20;99.90;;;;;;5056423;28;20052;-86
2022/04/23 01:04:10;;;;;;;16.58;13.45;;;10.30;99.90;;;;;;5074323;28;20059;-84
2022/04/23 01:06:36;;;;;;;19.70;13.43;;;10.20;99.90;;;;;;5074674;28;20093;-85
2022/04/23 01:09:04;;;;;;;17.67;14.05;;;10.20;99.90;;;;;;5056035;28;20458;-86
2022/04/23 01:11:30;;;;;;;14.60;11.82;;;10.30;99.90;;;;;;5073943;28;20040;-87
2022/04/23 01:13:56;;;;;;;20.45;13.38;;;10.10;99.90;;;;;;5073300;28;20069;-85
2022/04/23 01:16:22;;;;;;;17.35;13.52;;;10.10;99.90;;;;;;5074435;28;20419;-86
2022/04/23 01:18:47;;;;;;;17.05;12.88;;;10.10;99.90;;;;;;5056060;28;20056;-86
2022/04/23 01:21:13;;;;;;;18.58;13.48;;;10.10;99.90;;;;;;5074050;28;20056;-86
2022/04/23 01:23:43;;;;;;;15.93;13.80;;;10.00;99.90;;;;;;5056272;28;20045;-87
2022/04/23 01:26:10;;;;;;;16.52;14.13;;;10.00;99.90;;;;;;5055158;28;20111;-86
2022/04/23 01:28:37;;;;;;;20.50;13.75;;;10.00;99.90;;;;;;5055923;28;20044;-88
2022/04/23 01:31:04;;;;;;;18.25;13.50;;;10.00;99.90;;;;;;5055971;28;20059;-87
2022/04/23 01:33:38;;;;;;;15.68;13.25;;;10.00;99.90;;;;;;5074080;28;20469;-86
2022/04/23 01:36:04;;;;;;;15.95;13.18;;;10.10;99.90;;;;;;5056140;28;20418;-87
2022/04/23 01:38:30;;;;;;;17.65;13.85;;;9.90;99.90;;;;;;5055825;28;20386;-86
2022/04/23 01:40:56;;;;;;;17.95;14.00;;;9.90;99.90;;;;;;5055679;28;20053;-86
2022/04/23 01:43:22;;;;;;;19.67;13.55;;;9.90;99.90;;;;;;5072961;28;20127;-86
2022/04/23 01:45:47;;;;;;;17.92;14.52;;;9.80;99.90;;;;;;5072420;28;20041;-86
2022/04/23 01:48:13;;;;;;;18.05;13.40;;;9.80;99.90;;;;;;5072322;28;20044;-87
2022/04/23 01:50:39;;;;;;;15.40;13.40;;;9.80;99.90;;;;;;5055777;28;20098;-87
2022/04/23 01:53:05;;;;;;;16.08;13.65;;;9.80;99.90;;;;;;5072434;28;20161;-90
2022/04/23 01:55:31;;;;;;;18.90;13.40;;;9.80;99.90;;;;;;5073213;28;20063;-87
2022/04/23 01:57:57;;;;;;;17.73;13.85;;;9.80;99.90;;;;;;5072538;28;20044;-87
2022/04/23 02:00:22;;;;;;;15.20;12.98;;;9.80;99.90;;;;;;5073285;28;20047;-86
2022/04/23 02:02:48;;;;;;;15.30;12.75;;;9.70;99.90;;;;;;5055668;28;20048;-86
2022/04/23 02:05:14;;;;;;;16.42;14.02;;;9.70;99.90;;;;;;5055494;28;20118;-86
2022/04/23 02:07:41;;;;;;;16.83;13.15;;;9.70;99.90;;;;;;5072793;28;20102;-86
2022/04/23 02:10:09;;;;;;;17.08;13.27;;;9.70;99.90;;;;;;5072891;28;20067;-86
2022/04/23 02:12:34;;;;;;;16.35;13.30;;;9.70;99.90;;;;;;5073330;28;20452;-86
2022/04/23 02:15:01;;;;;;;18.25;13.68;;;9.80;99.90;;;;;;5072901;28;20045;-87
2022/04/23 02:17:34;;;;;;;16.58;13.85;;;9.70;99.90;;;;;;5038671;28;20114;-86
2022/04/23 02:20:08;;;;;;;17.88;14.40;;;9.70;99.90;;;;;;5055345;28;20044;-89
2022/04/23 02:22:34;;;;;;;17.30;13.00;;;9.70;99.90;;;;;;5072844;28;20052;-87
2022/04/23 02:25:00;;;;;;;14.85;13.10;;;9.60;99.90;;;;;;5071604;28;20123;-86
2022/04/23 02:27:27;;;;;;;17.70;13.52;;;9.60;99.90;;;;;;5054828;28;20084;-86
2022/04/23 02:29:54;;;;;;;18.30;13.25;;;9.60;99.90;;;;;;5055159;28;20055;-86
2022/04/23 02:32:20;;;;;;;16.83;13.45;;;9.60;99.90;;;;;;5054804;28;20131;-86
2022/04/23 02:34:46;;;;;;;17.17;13.27;;;9.60;99.90;;;;;;5072777;28;20113;-86
2022/04/23 02:37:12;;;;;;;16.15;13.60;;;9.60;99.90;;;;;;5054200;28;20052;-86
2022/04/23 02:39:41;;;;;;;15.20;12.73;;;9.60;99.90;;;;;;5072578;28;20299;-86
2022/04/23 02:42:09;;;;;;;15.52;12.75;;;9.70;99.90;;;;;;5072554;28;20478;-86
2022/04/23 02:44:35;;;;;;;18.95;13.05;;;9.50;99.90;;;;;;5054898;28;20049;-87
2022/04/23 02:47:01;;;;;;;16.60;12.90;;;9.50;99.90;;;;;;5072474;28;20119;-90
2022/04/23 02:49:27;;;;;;;17.10;12.90;;;9.50;99.90;;;;;;5072815;28;20044;-86
2022/04/23 02:51:53;;;;;;;17.35;13.02;;;9.40;99.90;;;;;;5072381;28;20044;-91
2022/04/23 02:54:18;;;;;;;14.40;12.90;;;9.40;99.90;;;;;;5072248;28;20055;-86
2022/04/23 02:56:45;;;;;;;16.85;13.00;;;9.30;99.90;;;;;;5072968;28;20539;-86
2022/04/23 02:59:11;;;;;;;16.65;13.23;;;9.30;99.90;;;;;;5054740;28;20064;-86
2022/04/23 03:01:37;;;;;;;17.10;13.40;;;9.20;99.90;;;;;;5072505;28;20094;-86
2022/04/23 03:04:03;;;;;;;15.00;11.80;;;9.20;99.90;;;;;;5071230;28;20048;-86
2022/04/23 03:06:33;;;;;;;16.13;12.70;;;9.10;99.90;;;;;;5054661;28;20048;-86
2022/04/23 03:09:03;;;;;;;16.05;12.68;;;9.10;99.90;;;;;;5037607;28;20052;-86
2022/04/23 03:11:30;;;;;;;18.13;12.38;;;9.00;99.90;;;;;;5072379;28;20076;-87
2022/04/23 03:13:58;;;;;;;17.83;12.77;;;9.00;99.90;;;;;;5071523;28;20048;-86
2022/04/23 03:16:26;;;;;;;15.50;11.93;;;9.00;99.90;;;;;;5054749;28;20056;-86
2022/04/23 03:18:52;;;;;;;14.20;11.48;;;8.90;99.90;;;;;;5071926;28;20147;-86
2022/04/23 03:21:18;;;;;;;13.80;11.50;;;9.00;99.90;;;;;;5054338;28;20045;-87
2022/04/23 03:23:44;;;;;;;14.60;11.50;;;8.90;99.90;;;;;;5071955;28;20116;-85
2022/04/23 03:26:09;;;;;;;16.23;12.10;;;8.90;99.90;;;;;;5054345;28;20037;-86
2022/04/23 03:28:35;;;;;;;16.25;11.65;;;8.80;99.90;;;;;;5071026;28;20044;-86
2022/04/23 03:31:02;;;;;;;14.73;10.88;;;8.80;99.90;;;;;;5054285;28;20048;-86
2022/04/23 03:33:28;;;;;;;17.30;11.30;;;8.80;99.90;;;;;;5072462;28;20052;-86
2022/04/23 03:35:54;;;;;;;14.85;10.23;;;8.90;99.90;;;;;;5037715;28;20060;-86
2022/04/23 03:38:20;;;;;;;14.07;10.93;;;8.80;99.90;;;;;;5054263;28;20052;-86
2022/04/23 03:40:48;;;;;;;15.27;12.23;;;8.80;99.90;;;;;;5054538;28;20118;-86
2022/04/23 03:43:13;;;;;;;17.40;12.07;;;8.80;99.90;;;;;;5072201;28;20109;-86
2022/04/23 03:45:39;;;;;;;15.15;11.68;;;8.80;99.90;;;;;;5054406;28;20465;-86
2022/04/23 03:48:05;;;;;;;12.30;10.55;;;8.80;99.90;;;;;;5054426;28;20555;-86
2022/04/23 03:50:32;;;;;;;14.77;11.35;;;8.80;99.90;;;;;;5054384;28;20048;-86
2022/04/23 03:52:58;;;;;;;14.85;10.75;;;8.70;99.90;;;;;;5070462;28;20061;-86
2022/04/23 03:55:25;;;;;;;12.45;10.35;;;8.70;99.90;;;;;;5070736;28;20051;-85
2022/04/23 03:57:54;;;;;;;12.98;10.43;;;8.70;99.90;;;;;;5072030;28;20040;-85
2022/04/23 04:00:21;;;;;;;14.82;11.23;;;8.70;99.90;;;;;;5054028;28;20041;-85
2022/04/23 04:02:47;;;;;;;14.93;11.45;;;8.80;99.90;;;;;;5071908;28;20053;-86
2022/04/23 04:05:13;;;;;;;15.05;11.15;;;8.70;99.90;;;;;;5071824;28;20395;-86
2022/04/23 04:07:43;;;;;;;13.65;11.27;;;8.70;99.90;;;;;;5057455;28;20086;-85
2022/04/23 04:10:11;;;;;;;15.37;11.17;;;8.70;99.90;;;;;;5057462;28;20040;-85
2022/04/23 04:12:37;;;;;;;12.07;10.18;;;8.70;99.90;;;;;;5075096;28;20048;-86
2022/04/23 04:15:09;;;;;;;15.90;10.65;;;8.70;99.90;;;;;;5057155;28;20047;-87
2022/04/23 04:17:36;;;;;;;11.95;10.45;;;8.70;99.90;;;;;;5057611;28;20052;-85
2022/04/23 04:20:03;;;;;;;11.65;9.88;;;8.70;99.90;;;;;;5057753;28;20040;-86
2022/04/23 04:22:30;;;;;;;15.05;10.18;;;8.70;99.90;;;;;;5075053;28;20044;-86
2022/04/23 04:24:57;;;;;;;12.75;10.45;;;8.70;99.90;;;;;;5075411;28;20060;-86
2022/04/23 04:27:23;;;;;;;12.10;9.60;;;8.70;99.90;;;;;;5074125;28;20093;-85
2022/04/23 04:29:49;;;;;;;13.38;9.82;;;8.70;99.90;;;;;;5057397;28;20588;-85
2022/04/23 04:32:15;;;;;;;14.05;10.27;;;8.70;99.90;;;;;;5040226;28;20068;-85
2022/04/23 04:34:40;;;;;;;12.23;9.80;;;8.70;99.90;;;;;;5056527;28;20064;-86
2022/04/23 04:37:08;;;;;;;11.30;9.52;;;8.80;99.90;;;;;;5057223;28;20130;-85
2022/04/23 04:39:39;;;;;;;10.38;9.05;;;8.70;99.90;;;;;;5040392;28;20055;-85
2022/04/23 04:42:06;;;;;;;12.00;9.70;;;8.70;99.90;;;;;;5075303;28;20372;-91
2022/04/23 04:44:32;;;;;;;12.60;9.20;;;8.70;99.90;;;;;;5056825;28;20049;-85
2022/04/23 04:46:58;;;;;;;12.13;9.30;;;8.70;99.90;;;;;;5074788;28;20474;-86
2022/04/23 04:49:24;;;;;;;12.13;9.65;;;8.70;99.90;;;;;;5074597;28;20036;-85
2022/04/23 04:51:50;;;;;;;11.65;9.75;;;8.70;99.90;;;;;;5056577;28;20055;-86
2022/04/23 04:54:18;;;;;;;12.48;9.40;;;8.70;99.90;;;;;;5074691;28;20150;-86
2022/04/23 04:56:47;;;;;;;13.57;9.90;;;8.70;99.90;;;;;;5057336;28;20067;-85
2022/04/23 04:59:13;;;;;;;12.65;8.48;;;8.70;99.90;;;;;;5055887;28;20067;-85
2022/04/23 05:01:39;;;;;;;10.50;8.38;;;8.70;99.90;;;;;;5074502;28;20048;-86
2022/04/23 05:04:04;;;;;;;10.93;8.45;;;8.70;99.90;;;;;;5040225;28;20502;-85
2022/04/23 05:06:30;;;;;;;9.27;7.78;;;8.70;99.90;;;;;;5056406;28;20053;-86
2022/04/23 05:08:56;;;;;;;11.02;8.95;;;8.80;99.90;;;;;;5056329;28;20079;-85
2022/04/23 05:11:21;;;;;;;10.30;8.18;;;8.80;99.90;;;;;;5074374;28;20130;-85
2022/04/23 05:13:47;;;;;;;10.35;8.30;;;8.90;99.90;;;;;;5074394;28;20049;-85
2022/04/23 05:16:13;;;;;;;9.65;7.95;;;8.90;99.90;;;;;;5040055;28;20048;-85
2022/04/23 05:18:39;;;;;;;10.30;7.57;;;8.90;99.90;;;;;;5054996;28;20045;-85
2022/04/23 05:21:05;;;;;;;8.73;7.82;;;9.00;99.90;;;;;;5056872;28;20052;-85
2022/04/23 05:23:31;;;;;;;9.90;8.32;;;9.00;99.90;;;;;;5056539;28;20055;-85
2022/04/23 05:25:57;;;;;;;9.23;7.57;;;9.00;99.90;;;;;;5057329;28;20159;-85
2022/04/23 05:28:23;;;;;;;9.00;7.97;;;9.10;99.90;;;;;;5056879;28;20124;-85
2022/04/23 05:30:49;;;;;;;9.98;7.40;;;9.10;99.90;;;;;;5056802;28;20048;-85
2022/04/23 05:33:15;;;;;;;8.85;7.60;;;9.20;99.90;;;;;;5075271;28;20044;-86
2022/04/23 05:35:41;;;;;;;8.90;7.40;;;9.30;99.90;;;;;;5075328;28;20136;-85
2022/04/23 05:38:06;;;;;;;8.27;6.95;;;9.30;99.90;;;;;;5074633;28;20040;-86
2022/04/23 05:40:33;;;;;;;8.73;7.68;;;9.40;99.90;;;;;;5074998;28;20104;-85
2022/04/23 05:42:59;;;;;;;11.00;7.45;;;9.50;99.90;;;;;;5057554;28;20052;-86
2022/04/23 05:45:28;;;;;;;8.43;6.82;;;9.60;99.90;;;;;;5075779;28;20106;-85
2022/04/23 05:47:55;;;;;;;7.85;6.88;;;9.70;99.90;;;;;;5058373;28;20487;-86
2022/04/23 05:50:21;;;;;;;7.68;6.88;;;9.70;99.90;;;;;;5076881;28;20085;-87
2022/04/23 05:52:47;;;;;;;9.55;7.28;;;10.00;99.90;;;;;;5059982;28;20076;-86
2022/04/23 05:55:13;;;;;;;7.50;6.43;;;10.10;99.90;;;;;;5043776;28;20056;-85
2022/04/23 05:57:39;;;;;;;7.75;6.95;;;10.10;99.90;;;;;;5057499;28;20044;-85
2022/04/23 06:00:07;;;;;;;8.13;7.30;;;10.20;99.90;;;;;;5056329;28;20125;-86
2022/04/23 06:02:32;;;;;;;9.95;7.22;;;10.10;99.90;;;;;;5045136;28;20395;-85
2022/04/23 06:04:59;;;;;;;8.93;7.45;;;10.10;99.90;;;;;;5070016;28;20051;-86
2022/04/23 06:07:24;;;;;;;9.23;7.07;;;10.10;99.90;;;;;;5057023;28;20052;-85
2022/04/23 06:09:50;;;;;;;8.90;7.07;;;10.20;99.90;;;;;;5040206;28;20071;-87
2022/04/23 06:12:16;;;;;;;9.05;7.28;;;10.10;99.90;;;;;;5074879;28;20072;-86
2022/04/23 06:14:43;;;;;;;8.75;7.85;;;10.20;99.90;;;;;;5074600;28;20587;-86
2022/04/23 06:17:11;;;;;;;9.77;7.80;;;10.20;99.90;;;;;;5057955;28;20060;-86
2022/04/23 06:19:40;;;;;;;11.77;7.95;;;10.30;99.90;;;;;;5074968;28;20465;-86
2022/04/23 06:22:06;;;;;;;10.45;8.07;;;10.50;99.90;;;;;;5057277;28;20437;-85
2022/04/23 06:24:32;;;;;;;9.85;8.20;;;10.40;99.90;;;;;;5055658;28;20036;-86
2022/04/23 06:26:58;;;;;;;8.55;7.60;;;10.50;99.90;;;;;;5055933;28;20152;-85
2022/04/23 06:29:24;;;;;;;10.63;8.98;;;10.50;99.90;;;;;;5072837;28;20490;-90
2022/04/23 06:31:50;;;;;;;10.95;7.93;;;10.70;99.90;;;;;;5073470;28;20051;-86
2022/04/23 06:34:16;;;;;;;11.38;7.72;;;10.90;99.90;;;;;;5055608;28;20071;-87
2022/04/23 06:36:42;;;;;;;10.10;8.70;;;10.90;99.90;;;;;;5055400;28;20040;-85
2022/04/23 06:39:08;;;;;;;12.60;9.10;;;11.10;99.90;;;;;;5059122;28;20048;-87
2022/04/23 06:41:34;;;;;;;13.20;8.45;;;11.40;99.90;;;;;;5048710;28;20048;-85
2022/04/23 06:43:59;;;;;;;11.85;8.85;;;11.20;99.90;;;;;;5034725;28;20048;-86
2022/04/23 06:46:25;;;;;;;11.40;8.93;;;11.30;99.90;;;;;;5035150;28;20106;-84
2022/04/23 06:48:51;;;;;;;11.50;8.25;;;11.40;99.90;;;;;;5028176;28;20128;-85
2022/04/23 06:51:17;;;;;;;14.27;9.07;;;11.50;99.90;;;;;;5040182;28;20132;-86
2022/04/23 06:53:43;;;;;;;11.15;8.38;;;11.50;99.90;;;;;;5029415;28;20052;-86
2022/04/23 06:56:08;;;;;;;11.40;8.93;;;11.70;99.90;;;;;;5025325;28;20064;-87
2022/04/23 06:58:34;;;;;;;9.73;7.68;;;11.70;99.90;;;;;;5034324;28;20115;-90
2022/04/23 07:01:01;;;;;;;10.45;8.40;;;11.70;99.90;;;;;;5040598;28;20041;-87
2022/04/23 07:03:26;;;;;;;15.15;9.20;;;11.70;99.90;;;;;;5036893;28;20057;-86
2022/04/23 07:05:52;;;;;;;12.95;9.02;;;11.80;99.90;;;;;;5038597;28;20099;-86
2022/04/23 07:08:18;;;;;;;11.77;9.07;;;11.80;99.90;;;;;;5030560;28;20088;-88
2022/04/23 07:10:44;;;;;;;12.98;9.40;;;11.90;99.90;;;;;;5071077;28;20041;-86
2022/04/23 07:13:11;;;;;;;12.45;9.38;;;11.90;99.90;;;;;;5054809;28;20044;-87
2022/04/23 07:15:38;;;;;;;13.75;9.07;;;12.00;99.90;;;;;;5072334;28;20103;-86
2022/04/23 07:18:04;;;;;;;11.95;8.90;;;12.10;99.90;;;;;;5072355;28;20371;-87
2022/04/23 07:20:29;;;;;;;11.38;9.30;;;12.30;99.90;;;;;;5054435;28;20056;-88
2022/04/23 07:25:40;;;;;;;12.10;9.52;;;12.50;99.90;;;;;;5054653;28;20059;-87
2022/04/23 07:28:06;;;;;;;11.88;8.93;;;12.60;99.90;;;;;;5033684;28;20065;-87
2022/04/23 07:30:33;;;;;;;11.30;9.85;;;12.70;99.90;;;;;;5050679;28;20053;-84
2022/04/23 07:32:59;;;;;;;12.82;10.38;;;12.70;99.90;;;;;;5033674;28;20406;-86
2022/04/23 07:38:19;;;;;;;11.55;10.05;;;13.10;99.90;;;;;;5043387;28;20102;-85
2022/04/23 07:40:48;;;;;;;14.00;10.15;;;13.20;99.90;;;;;;5058484;28;20082;-86
2022/04/23 07:43:14;;;;;;;13.55;10.07;;;13.20;99.90;;;;;;5057614;28;20083;-85
2022/04/23 07:45:42;;;;;;;20.35;10.57;;;13.20;99.90;;;;;;5063618;28;20090;-86
2022/04/23 07:48:11;;;;;;;13.77;10.10;;;13.40;99.90;;;;;;5042473;28;20053;-85
2022/04/23 07:50:39;;;;;;;16.55;10.35;;;13.40;99.90;;;;;;5061183;28;20052;-86
2022/04/23 07:53:07;;;;;;;13.70;10.13;;;13.50;99.90;;;;;;5060938;28;20698;-86
2022/04/23 07:55:35;;;;;;;13.93;9.65;;;13.70;99.90;;;;;;5062673;28;20096;-86
2022/04/23 07:58:03;;;;;;;16.23;10.95;;;13.80;99.90;;;;;;5028000;28;20045;-87
2022/04/23 08:00:30;;;;;;;13.80;9.80;;;14.00;99.90;;;;;;5060024;28;20083;-86
2022/04/23 08:02:56;;;;;;;18.17;9.93;;;14.10;99.90;;;;;;5042980;28;20052;-86
2022/04/23 08:05:22;;;;;;;15.10;9.95;;;14.40;99.90;;;;;;5027317;28;20057;-87
2022/04/23 08:07:47;;;;;;;12.80;10.10;;;14.80;99.90;;;;;;5027548;28;20813;-87
2022/04/23 08:10:13;;;;;;;16.10;9.25;;;15.30;99.90;;;;;;5047808;28;20069;-87
2022/04/23 08:12:39;;;;;;;11.70;9.65;;;15.60;99.70;;;;;;5041118;28;20068;-85
2022/04/23 08:15:05;;;;;;;14.23;9.55;;;15.80;97.70;;;;;;5043969;28;20444;-86
2022/04/23 08:17:32;;;;;;;15.52;9.27;;;16.20;96.80;;;;;;5029489;28;20490;-86
2022/04/23 08:19:58;;;;;;;12.88;8.50;;;17.10;91.60;;;;;;5031806;28;20068;-88
2022/04/23 08:22:23;;;;;;;14.25;8.82;;;18.20;81.60;;;;;;5057480;28;20142;-88
2022/04/23 08:24:49;;;;;;;19.05;9.27;;;19.10;72.80;;;;;;5028003;28;20199;-85
2022/04/23 08:27:15;;;;;;;10.98;8.63;;;19.70;64.90;;;;;;5055632;28;20071;-86
2022/04/23 08:32:25;;;;;;;22.23;9.68;;;20.10;58.70;;;;;;5034477;28;20053;-89
2022/04/23 08:34:51;;;;;;;18.35;9.10;;;20.40;56.80;;;;;;5024050;28;20474;-88
2022/04/23 08:37:17;;;;;;;18.38;8.60;;;20.40;55.10;;;;;;5041359;28;20078;-86
2022/04/23 08:39:43;;;;;;;20.50;9.68;;;20.60;54.40;;;;;;5029508;28;20065;-87
2022/04/23 08:42:09;;;;;;;19.98;9.63;;;20.80;53.60;;;;;;5022019;28;20061;-86
2022/04/23 08:44:38;;;;;;;18.05;8.90;;;20.90;52.70;;;;;;5041650;28;20045;-87
2022/04/23 08:47:05;;;;;;;15.93;8.50;;;21.00;51.60;;;;;;5034137;28;20049;-87
2022/04/23 08:49:35;;;;;;;11.65;8.50;;;21.10;51.80;;;;;;5035410;28;20062;-85
2022/04/23 08:52:16;;;;;;;11.65;8.50;;;21.20;51.00;;;;;;5066676;28;20045;-88
2022/04/23 08:54:42;;;;;;;;;;;21.60;50.70;;;;;;5029628;28;20044;-87
2022/04/23 08:57:08;;;;;;;11.55;7.93;;;22.10;49.20;;;;;;5009549;28;19928;-87
2022/04/23 09:00:14;;;;;;;12.00;8.15;;;22.30;50.30;;;;;;5035354;28;20065;-86
2022/04/23 09:02:43;;;;;;;10.90;7.97;;;22.50;46.50;;;;;;5042972;28;20061;-88
2022/04/23 09:05:14;;;;;;;14.13;7.68;;;22.30;48.40;;;;;;5044759;28;20064;-87
2022/04/23 09:07:52;;;;;;;9.20;8.13;;;22.40;47.90;;;;;;5005245;28;20054;-89
2022/04/23 09:10:20;;;;;;;10.27;7.95;;;22.60;47.00;;;;;;5041426;28;20045;-90
2022/04/23 09:12:56;;;;;;;9.98;7.32;;;22.60;47.10;;;;;;5050944;28;20111;-88
2022/04/23 09:23:44;;;;;;;11.15;8.07;;;23.00;45.90;;;;;;5036838;28;20230;-88
2022/04/23 09:26:17;;;;;;;11.10;8.13;;;23.10;46.20;;;;;;5045730;28;20036;-87
2022/04/23 09:28:48;;;;;;;13.00;8.10;;;23.20;45.50;;;;;;5037112;28;20049;-84
2022/04/23 09:31:16;;;;;;;8.65;7.75;;;23.40;45.70;;;;;;5040386;28;20048;-87
2022/04/23 09:33:44;;;;;;;12.25;7.75;;;23.70;44.60;;;;;;5067688;28;20036;-88
2022/04/23 09:36:10;;;;;;;13.45;8.13;;;23.80;44.70;;;;;;5040837;28;20124;-89
2022/04/23 09:38:36;;;;;;;9.48;8.13;;;24.00;44.30;;;;;;5058368;28;20176;-87
2022/04/23 09:41:21;;;;;;;9.80;7.70;;;24.20;44.50;;;;;;5039373;28;20052;-85
2022/04/23 09:44:03;;;;;;;11.88;8.00;;;24.50;43.40;;;;;;5047515;28;20418;-91
2022/04/23 09:46:45;;;;;;;9.82;7.90;;;24.50;42.90;;;;;;5024979;28;20406;-89
2022/04/23 09:49:12;;;;;;;9.13;8.13;;;24.50;43.00;;;;;;5061116;28;20036;-89
2022/04/23 09:51:38;;;;;;;16.05;8.50;;;24.60;43.70;;;;;;5043431;28;20511;-88
2022/04/23 09:54:04;;;;;;;11.25;7.57;;;25.00;42.60;;;;;;5026685;28;20053;-86
2022/04/23 09:56:29;;;;;;;10.55;8.10;;;25.10;42.00;;;;;;5063389;28;20051;-91
2022/04/23 09:58:58;;;;;;;11.02;7.85;;;25.30;41.60;;;;;;5055952;28;20038;-88
2022/04/23 10:01:24;;;;;;;9.63;7.72;;;25.40;41.00;;;;;;5053066;28;20411;-87
2022/04/23 10:03:54;;;;;;;9.75;7.95;;;25.50;41.20;;;;;;5062430;28;20048;-90
2022/04/23 10:06:22;;;;;;;10.43;8.02;;;25.60;40.50;;;;;;5061316;28;20098;-90
2022/04/23 10:08:51;;;;;;;8.68;7.78;;;25.70;40.40;;;;;;5060267;28;20041;-88
2022/04/23 10:11:31;;;;;;;10.05;8.60;;;25.70;39.90;;;;;;5041280;28;20045;-86
2022/04/23 10:14:08;;;;;;;9.77;8.32;;;25.60;40.40;;;;;;5021074;28;20072;-85
2022/04/23 10:16:35;;;;;;;10.68;8.23;;;25.70;40.10;;;;;;5017710;28;20050;-86
2022/04/23 10:19:02;;;;;;;11.27;8.65;;;25.70;40.30;;;;;;5050319;28;20053;-88
2022/04/23 10:21:44;;;;;;;10.70;8.05;;;25.90;39.70;;;;;;4995556;28;20049;-84
2022/04/23 10:24:18;;;;;;;9.30;7.90;;;26.00;39.70;;;;;;5039851;28;20128;-87
2022/04/23 10:26:52;;;;;;;9.32;8.25;;;26.20;40.30;;;;;;5032640;28;20039;-89
2022/04/23 10:29:25;;;;;;;12.35;8.68;;;26.40;39.40;;;;;;5014976;28;20051;-89
2022/04/23 10:32:09;;;;;;;10.27;8.35;;;26.40;38.30;;;;;;5014672;28;20364;-89
2022/04/23 10:34:35;;;;;;;11.35;8.55;;;26.30;38.00;;;;;;5039590;28;20055;-89
2022/04/23 10:37:25;;;;;;;10.07;8.70;;;26.50;39.10;;;;;;5054298;28;20056;-89
2022/04/23 10:39:53;;;;;;;9.70;8.53;;;26.70;38.40;;;;;;5070968;28;20052;-89
2022/04/23 10:42:21;;;;;;;10.93;8.40;;;26.80;38.30;;;;;;5054478;28;20053;-88
2022/04/23 10:44:48;;;;;;;13.25;8.82;;;26.80;38.40;;;;;;5048786;28;20061;-89
2022/04/23 10:47:39;;;;;;;10.73;9.18;;;27.10;38.30;;;;;;5071361;28;20504;-89
2022/04/23 10:50:22;;;;;;;11.77;8.88;;;27.10;37.90;;;;;;5057298;28;20060;-89
2022/04/23 10:52:50;;;;;;;14.48;8.85;;;27.20;37.90;;;;;;5017675;28;20068;-89
2022/04/23 10:55:16;;;;;;;10.00;8.35;;;27.30;38.00;;;;;;5052566;28;20079;-88
2022/04/23 10:57:53;;;;;;;11.57;7.80;;;27.60;37.60;;;;;;5051086;28;20517;-88
2022/04/23 11:00:21;;;;;;;9.80;8.80;;;27.90;38.00;;;;;;5050720;28;20494;-89
2022/04/23 11:02:54;;;;;;;9.43;8.40;;;28.20;37.00;;;;;;5029013;28;20057;-90
2022/04/23 11:14:07;;;;;;;9.95;7.93;;;27.80;36.70;;;;;;5035288;28;20103;-90
2022/04/23 11:16:34;;;;;;;;;;;27.70;36.40;;;;;;5054886;28;20080;-89
2022/04/23 11:19:01;;;;;;;11.18;7.78;;;27.80;35.60;;;;;;5034000;28;20433;-88
2022/04/23 11:21:34;;;;;;;10.48;9.15;;;27.80;36.70;;;;;;5012278;28;20053;-89
2022/04/23 11:24:01;;;;;;;10.73;8.50;;;27.80;36.00;;;;;;5035891;28;20150;-88
2022/04/23 11:26:46;;;;;;;10.45;7.85;;;27.50;35.70;;;;;;5051690;28;20041;-87
2022/04/23 11:29:13;;;;;;;8.27;7.47;;;27.50;35.60;;;;;;5017759;28;20046;-88
2022/04/23 11:31:40;;;;;;;13.93;8.05;;;27.60;36.00;;;;;;5035556;28;20128;-88
2022/04/23 11:34:06;;;;;;;11.10;9.05;;;27.90;35.80;;;;;;5034977;28;20041;-89
2022/04/23 11:36:36;;;;;;;10.20;7.93;;;28.00;35.30;;;;;;5017859;28;20053;-89
2022/04/23 11:39:07;;;;;;;;;;;28.10;35.60;;;;;;5036001;28;20040;-87
2022/04/23 11:41:38;;;;;;;9.02;8.13;;;28.30;33.90;;;;;;5017906;28;19917;-88
2022/04/23 11:44:46;;;;;;;9.85;7.70;;;27.90;35.60;;;;;;5034522;28;20483;-89
2022/04/23 11:47:13;;;;;;;8.80;7.38;;;28.00;35.40;;;;;;5020633;28;20074;-89
2022/04/23 11:49:41;;;;;;;8.15;7.32;;;28.20;35.80;;;;;;5021523;28;20045;-89
2022/04/23 11:52:10;;;;;;;7.93;7.15;;;28.40;35.50;;;;;;5037756;28;20059;-90
2022/04/23 11:54:41;;;;;;;8.45;7.65;;;28.70;35.10;;;;;;5037754;28;20047;-89
2022/04/23 11:57:15;;;;;;;10.90;7.40;;;28.80;34.60;;;;;;5037418;28;20045;-90
2022/04/23 11:59:42;;;;;;;9.85;7.90;;;29.00;34.30;;;;;;5037864;28;20041;-88
2022/04/23 12:02:17;;;;;;;8.27;7.20;;;29.00;33.80;;;;;;5037438;28;20132;-87
2022/04/23 12:04:44;;;;;;;8.70;7.60;;;29.10;33.00;;;;;;5037998;28;20048;-89
2022/04/23 12:07:10;;;;;;;8.20;7.40;;;28.90;34.00;;;;;;5037075;28;20082;-89
2022/04/23 12:09:51;;;;;;;11.18;8.50;;;29.10;34.10;;;;;;5021036;28;20037;-88
2022/04/23 12:12:19;;;;;;;9.18;7.05;;;29.10;33.40;;;;;;5038425;28;20036;-89
2022/04/23 12:14:55;;;;;;;7.63;6.93;;;28.80;33.80;;;;;;5049419;28;20132;-89
2022/04/23 12:17:26;;;;;;;7.63;6.55;;;28.60;33.70;;;;;;5019035;28;20054;-90
2022/04/23 12:19:56;;;;;;;10.20;7.15;;;28.80;34.30;;;;;;5031269;28;20049;-89
2022/04/23 12:22:32;;;;;;;7.70;6.22;;;29.10;33.50;;;;;;5074185;28;20052;-87
2022/04/23 12:25:16;;;;;;;6.97;6.05;;;29.20;33.90;;;;;;5065013;28;20123;-87
2022/04/23 12:42:15;;;;;;;8.50;5.28;;;29.40;31.80;;;;;;5016990;28;20410;-86
2022/04/23 12:44:46;;;;;;;7.88;5.20;;;29.30;31.50;;;;;;5003322;28;20115;-85
2022/04/23 12:47:20;;;;;;;6.22;5.47;;;29.10;32.30;;;;;;5001433;28;20061;-87
2022/04/23 12:49:51;;;;;;;11.60;5.07;;;28.70;32.20;;;;;;5018559;28;20050;-86
2022/04/23 12:52:32;;;;;;;5.95;5.38;;;28.10;33.10;;;;;;5036410;28;20515;-89
2022/04/23 12:55:12;;;;;;;;;;;27.30;33.70;;;;;;5003793;28;20289;-89
2022/04/23 12:57:41;;;;;;;7.03;5.05;;;27.00;34.00;;;;;;5022998;28;20531;-88
2022/04/23 13:00:09;;;;;;;6.32;4.45;;;26.70;34.70;;;;;;5004670;28;20057;-87
2022/04/23 13:02:39;;;;;;;9.25;4.00;;;26.80;34.90;;;;;;5020476;28;20128;-86
2022/04/23 13:05:06;;;;;;;6.65;4.72;;;27.30;34.90;;;;;;5019091;28;20049;-88
2022/04/23 13:10:18;;;;;;;7.18;4.90;;;28.80;32.70;;;;;;5035371;28;20049;-88
2022/04/23 13:12:43;;;;;;;5.65;5.15;;;29.20;31.80;;;;;;5016399;28;20128;-87
2022/04/23 13:15:09;;;;;;;7.70;4.63;;;29.30;31.10;;;;;;5024100;28;20534;-88
2022/04/23 13:17:38;;;;;;;5.82;4.97;;;29.30;31.10;;;;;;5015425;28;20094;-87
2022/04/23 13:20:08;;;;;;;8.10;4.82;;;29.00;30.80;;;;;;5029747;28;20433;-86
2022/04/23 13:22:35;;;;;;;7.60;4.60;;;28.30;30.60;;;;;;5013071;28;20143;-88
2022/04/23 13:25:05;;;;;;;8.48;5.45;;;27.30;32.20;;;;;;5053600;28;20048;-88
2022/04/23 13:27:32;;;;;;;6.45;4.32;;;26.60;33.30;;;;;;5053464;28;20045;-88